CPX83 Details

Departure: Auckland International Airport (NZAA)
Arrival: Daniel K Inouye International Airport (PHNL)
Route: TARIB G347 UBRAX OVLAD CUFFY A579 CROBY A579 CHEEM A579 CARRP OPACA4


Current Weather Information
NZAA 251100Z AUTO 10003KT 9999 NCD 09/09 Q1024 NOSIG
PHNL 251053Z 08008KT 10SM FEW026 FEW060 26/19 A3006 RMK AO2 SLP180 T02610194 $